Time;durP1;ratioP1;P1;durP2;ratioP2;P2;SDS_P1;SDS_P2;PMS_P1;PMS_P2;Temp;Humidity;BMP_temperature;BMP_pressure;BME280_temperature;BME280_humidity;BME280_pressure;Samples;Min_cycle;Max_cycle;Signal;HPM_P1;HPM_P2
2022/03/01 06:49:20;;;;;;;;;;;;;;;1.04;78.30;100791.63;5504464;23;20029;-78
2022/03/01 06:51:45;;;;;;;;;;;;;;;1.02;78.14;100799.44;4991815;28;20020;-81
2022/03/01 06:54:10;;;;;;;;;;;;;;;0.97;78.02;100790.66;4993547;28;19973;-79
2022/03/01 06:56:36;;;;;;;;;;;;;;;0.98;78.05;100789.81;4993614;28;19929;-80
2022/03/01 06:59:01;;;;;;;;;;;;;;;0.97;78.11;100780.22;4993383;28;19918;-80
2022/03/01 07:01:26;;;;;;;;;;;;;;;0.95;77.84;100792.38;4993356;28;19928;-81
2022/03/01 07:03:51;;;;;;;;;;;;;;;0.99;77.66;100790.69;4990854;28;19918;-79
2022/03/01 07:06:16;;;;;;;;;;;;;;;0.96;77.84;100786.31;5008449;28;19988;-80
2022/03/01 07:08:42;;;;;;;;;;;;;;;0.94;77.71;100793.22;4992160;28;19925;-79
2022/03/01 07:11:07;;;;;;;;;;;;;;;0.95;77.96;100794.13;4993330;28;20369;-82
2022/03/01 07:13:32;;;;;;;;;;;;;;;1.05;77.73;100790.75;4992262;28;19922;-80
2022/03/01 07:15:57;;;;;;;;;;;;;;;0.85;77.24;100791.41;4993233;28;20486;-80
2022/03/01 07:18:23;;;;;;;;;;;;;;;0.89;77.42;100797.53;4990504;28;19925;-78
2022/03/01 07:20:48;;;;;;;;;;;;;;;0.80;77.68;100797.41;4991929;28;19917;-80
2022/03/01 07:23:14;;;;;;;;;;;;;;;0.94;77.38;100795.84;4992614;28;19974;-80
2022/03/01 07:25:39;;;;;;;;;;;;;;;0.89;77.25;100798.44;4987111;28;19922;-79
2022/03/01 07:28:05;;;;;;;;;;;;;;;0.88;77.49;100793.19;4993012;28;20395;-80
2022/03/01 07:30:30;;;;;;;;;;;;;;;0.89;77.27;100797.53;4992942;28;19925;-80
2022/03/01 07:33:01;;;;;;;;;;;;;;;0.91;77.28;100808.88;4991676;28;20016;-78
2022/03/01 07:35:26;;;;;;;;;;;;;;;0.85;77.03;100796.63;5007861;28;19928;-81
2022/03/01 07:37:52;;;;;;;;;;;;;;;0.87;77.15;100800.13;4993009;28;20340;-79
2022/03/01 07:40:18;;;;;;;;;;;;;;;0.86;76.98;100801.00;4991827;28;19941;-81
2022/03/01 07:42:44;;;;;;;;;;;;;;;0.88;77.13;100799.28;4992702;28;19921;-79
2022/03/01 07:45:09;;;;;;;;;;;;;;;0.75;76.90;100797.38;4991470;28;19922;-81
2022/03/01 07:47:35;;;;;;;;;;;;;;;0.75;77.06;100797.38;4992387;28;20451;-80
2022/03/01 07:50:00;;;;;;;;;;;;;;;0.85;77.24;100791.41;5001373;28;19926;-81
2022/03/01 07:52:26;;;;;;;;;;;;;;;0.82;77.26;100795.72;4988177;28;20444;-80
2022/03/01 07:54:51;;;;;;;;;;;;;;;1.27;81.67;100794.50;4986408;28;19922;-80
2022/03/01 07:57:17;;;;;;;;;;;;;;;1.38;84.18;100797.25;4986021;28;20951;-83
2022/03/01 07:59:42;;;;;;;;;;;;;;;1.48;85.26;100795.59;4984197;28;20649;-83
2022/03/01 08:02:07;;;;;;;;;;;;;;;1.29;85.63;100798.00;4999767;28;19914;-82
2022/03/01 08:04:33;;;;;;;;;;;;;;;1.36;85.99;100796.34;4989191;28;19918;-81
2022/03/01 08:06:58;;;;;;;;;;;;;;;1.36;85.94;100799.84;4990953;28;19973;-80
2022/03/01 08:09:23;;;;;;;;;;;;;;;1.29;85.81;100802.34;4992440;28;19917;-80
2022/03/01 08:11:48;;;;;;;;;;;;;;;1.19;85.65;100797.03;4992287;28;19917;-81
2022/03/01 08:14:14;;;;;;;;;;;;;;;1.23;85.38;100801.44;4991311;28;20405;-82
2022/03/01 08:16:39;;;;;;;;;;;;;;;1.10;85.46;100807.34;4992186;28;19968;-82
2022/03/01 08:19:04;;;;;;;;;;;;;;;1.21;85.48;100799.66;4991413;28;19929;-80
2022/03/01 08:21:29;;;;;;;;;;;;;;;1.17;85.17;100795.28;4990998;28;19914;-82
2022/03/01 08:23:55;;;;;;;;;;;;;;;1.20;85.09;100793.56;4992695;28;19926;-81
2022/03/01 08:26:20;;;;;;;;;;;;;;;1.16;84.81;100791.75;5006937;28;19957;-81
2022/03/01 08:28:46;;;;;;;;;;;;;;;1.19;84.66;100788.31;4995088;28;19914;-81
2022/03/01 08:31:12;;;;;;;;;;;;;;;1.13;84.35;100790.84;4994108;28;19925;-82
2022/03/01 08:33:37;;;;;;;;;;;;;;;1.19;84.25;100790.94;4994845;28;19918;-79
2022/03/01 08:36:03;;;;;;;;;;;;;;;1.18;83.83;100786.56;4996414;28;19917;-81
2022/03/01 08:38:28;;;;;;;;;;;;;;;1.12;83.53;100782.16;4996054;28;20012;-80
2022/03/01 08:40:53;;;;;;;;;;;;;;;1.18;83.05;100790.06;4996261;28;19987;-81
2022/03/01 08:43:20;;;;;;;;;;;;;;;1.13;83.01;100796.94;4995915;28;19925;-81
2022/03/01 08:45:45;;;;;;;;;;;;;;;1.17;82.72;100803.97;4994779;28;19922;-81
2022/03/01 08:48:10;;;;;;;;;;;;;;;1.22;82.34;100802.28;5009495;28;19921;-81
2022/03/01 09:01:24;;;;;;;;;;;;;;;1.13;81.44;100811.75;5145779;23;19929;-85
2022/03/01 09:03:49;;;;;;;;;;;;;;;1.10;81.16;100807.34;5009151;28;20400;-88
2022/03/01 09:06:14;;;;;;;;;;;;;;;1.08;80.80;100801.25;4991364;28;19918;-86
2022/03/01 09:08:40;;;;;;;;;;;;;;;1.14;81.01;100801.31;5009776;28;19926;-83
2022/03/01 09:11:06;;;;;;;;;;;;;;;1.17;80.75;100810.94;4994029;28;19968;-83
2022/03/01 09:13:32;;;;;;;;;;;;;;;1.15;80.65;100805.69;5010051;28;20320;-84
2022/03/01 09:15:57;;;;;;;;;;;;;;;1.19;80.18;100806.59;4993210;28;19929;-84
2022/03/01 09:18:22;;;;;;;;;;;;;;;1.11;79.93;100803.03;4993786;28;20373;-84
2022/03/01 09:20:48;;;;;;;;;;;;;;;1.10;80.25;100812.56;4994526;28;19921;-84
2022/03/01 09:23:14;;;;;;;;;;;;;;;1.10;79.83;100812.56;4995461;28;19921;-85
2022/03/01 09:25:39;;;;;;;;;;;;;;;1.10;79.76;100809.97;4994167;28;20398;-84
2022/03/01 09:28:04;;;;;;;;;;;;;;;1.17;79.43;100803.09;4995258;28;19926;-84
2022/03/01 09:30:30;;;;;;;;;;;;;;;1.16;79.27;100799.59;4992243;28;19929;-85
2022/03/01 09:32:55;;;;;;;;;;;;;;;1.14;79.14;100798.72;4992431;28;19933;-85
2022/03/01 09:35:21;;;;;;;;;;;;;;;1.12;79.16;100800.44;4993775;28;19922;-85
2022/03/01 09:37:47;;;;;;;;;;;;;;;1.11;78.79;100803.91;4993091;28;19922;-85
2022/03/01 09:40:14;;;;;;;;;;;;;;;1.13;78.59;100799.56;4994659;28;20400;-85
2022/03/01 09:42:40;;;;;;;;;;;;;;;1.16;78.67;100802.22;4992581;28;19918;-85
2022/03/01 09:45:05;;;;;;;;;;;;;;;1.12;78.53;100797.81;4992549;28;19922;-85
2022/03/01 09:47:30;;;;;;;;;;;;;;;1.19;78.38;100788.31;4993018;28;19922;-85
2022/03/01 09:49:56;;;;;;;;;;;;;;;1.22;78.43;100791.84;5009305;28;19954;-84
2022/03/01 09:52:21;;;;;;;;;;;;;;;1.17;78.11;100788.31;4994040;28;20284;-84
2022/03/01 09:54:48;;;;;;;;;;;;;;;1.12;78.04;100784.78;4992447;28;19980;-82
2022/03/01 09:57:14;;;;;;;;;;;;;;;1.16;78.06;100794.38;4993450;28;19965;-85
2022/03/01 09:59:40;;;;;;;;;;;;;;;1.22;77.84;100797.06;4992666;28;20353;-82
2022/03/01 10:02:05;;;;;;;;;;;;;;;1.17;77.42;100788.31;4993903;28;19929;-84
2022/03/01 10:04:30;;;;;;;;;;;;;;;1.21;77.17;100784.88;4994364;28;20300;-83
2022/03/01 10:06:55;;;;;;;;;;;;;;;1.23;77.36;100787.50;5008329;28;19922;-86
2022/03/01 10:09:23;;;;;;;;;;;;;;;1.27;77.03;100795.38;4991832;28;19926;-82
2022/03/01 10:11:49;;;;;;;;;;;;;;;1.21;76.80;100797.94;4993052;28;20455;-84
2022/03/01 10:14:15;;;;;;;;;;;;;;;1.20;76.62;100798.78;4990867;28;19976;-85
2022/03/01 10:16:41;;;;;;;;;;;;;;;1.30;76.45;100798.91;4994187;28;20012;-85
2022/03/01 10:19:14;;;;;;;;;;;;;;;1.24;76.62;100794.47;4993542;28;20423;-84
2022/03/01 10:21:39;;;;;;;;;;;;;;;1.26;76.35;100792.75;5006798;28;20179;-82
2022/03/01 10:24:07;;;;;;;;;;;;;;;1.27;76.02;100789.28;4991885;28;19997;-82
2022/03/01 10:26:32;;;;;;;;;;;;;;;1.31;76.19;100795.41;4991653;28;19925;-85
2022/03/01 10:28:58;;;;;;;;;;;;;;;1.34;75.74;100785.00;4993630;28;19918;-85
2022/03/01 10:31:30;;;;;;;;;;;;;;;1.35;75.76;100787.63;4991402;28;20284;-86
2022/03/01 10:34:03;;;;;;;;;;;;;;;1.30;75.35;100791.06;5008540;28;19926;-83
2022/03/01 10:36:49;;;;;;;;;;;;;;;1.22;75.33;100789.22;5008458;28;19922;-84
2022/03/01 10:39:16;;;;;;;;;;;;;;;1.29;75.49;100792.78;4992098;28;19928;-86
2022/03/01 10:41:42;;;;;;;;;;;;;;;1.26;75.72;100792.75;5007188;28;19921;-83
2022/03/01 10:44:13;;;;;;;;;;;;;;;1.14;75.73;100792.63;4993851;28;20404;-84
2022/03/01 10:46:43;;;;;;;;;;;;;;;1.24;75.68;100784.03;4991779;28;20004;-84
2022/03/01 10:49:16;;;;;;;;;;;;;;;1.29;75.63;100797.13;4992895;28;20312;-85
2022/03/01 10:51:52;;;;;;;;;;;;;;;1.23;75.70;100801.44;4993324;28;19918;-83
2022/03/01 10:54:28;;;;;;;;;;;;;;;1.29;75.53;100797.13;4992629;28;20380;-86
2022/03/01 10:56:55;;;;;;;;;;;;;;;1.27;75.39;100800.59;4992931;28;20293;-87
2022/03/01 10:59:24;;;;;;;;;;;;;;;1.30;75.66;100798.91;4991028;28;19961;-85
2022/03/01 11:01:50;;;;;;;;;;;;;;;1.26;75.05;100788.41;4991618;28;20307;-84
2022/03/01 11:04:15;;;;;;;;;;;;;;;1.29;75.12;100786.69;4992314;28;19926;-85
2022/03/01 11:06:41;;;;;;;;;;;;;;;1.30;75.18;100788.44;5008113;28;20332;-85
2022/03/01 11:09:12;;;;;;;;;;;;;;;1.20;75.21;100784.88;4990629;28;19925;-85
2022/03/01 11:11:39;;;;;;;;;;;;;;;1.30;75.21;100785.84;5006496;28;20483;-85
2022/03/01 11:14:05;;;;;;;;;;;;;;;1.24;75.12;100774.44;4992736;28;19929;-86
2022/03/01 11:16:42;;;;;;;;;;;;;;;1.31;75.02;100774.50;4991939;28;19922;-85
2022/03/01 11:19:18;;;;;;;;;;;;;;;1.34;74.94;100764.09;4992305;28;20009;-83
2022/03/01 11:21:45;;;;;;;;;;;;;;;1.27;75.12;100763.16;5007000;28;19921;-83
2022/03/01 11:24:13;;;;;;;;;;;;;;;1.32;74.97;100756.25;4991353;28;19965;-84
2022/03/01 11:26:38;;;;;;;;;;;;;;;1.29;75.00;100743.16;4991847;28;20017;-83
2022/03/01 11:29:12;;;;;;;;;;;;;;;1.28;75.04;100736.22;4991302;28;19997;-84
2022/03/01 11:31:38;;;;;;;;;;;;;;;1.30;74.86;100728.38;4990232;28;19988;-83
2022/03/01 11:34:11;;;;;;;;;;;;;;;1.34;74.79;100720.59;5007847;28;20361;-85
2022/03/01 11:36:36;;;;;;;;;;;;;;;1.40;74.54;100722.38;4992031;28;19957;-85
2022/03/01 11:39:12;;;;;;;;;;;;;;;1.33;74.38;100716.22;5006891;28;19976;-82
2022/03/01 11:41:41;;;;;;;;;;;;;;;1.35;74.23;100718.84;5007451;28;20312;-85
2022/03/01 11:44:07;;;;;;;;;;;;;;;1.39;74.22;100713.69;4990548;28;19922;-82
2022/03/01 11:46:38;;;;;;;;;;;;;;;1.34;74.31;100709.25;4987881;28;19997;-86
2022/03/01 11:49:04;;;;;;;;;;;;;;;1.41;74.51;100711.94;4989551;28;19926;-86
2022/03/01 11:51:31;;;;;;;;;;;;;;;1.34;74.10;100702.31;4990262;28;20194;-83
2022/03/01 11:53:57;;;;;;;;;;;;;;;1.36;74.06;100702.34;4988965;28;19977;-85
2022/03/01 11:56:23;;;;;;;;;;;;;;;1.33;74.11;100700.56;5003194;28;19914;-84
2022/03/01 11:58:49;;;;;;;;;;;;;;;1.27;74.11;100698.75;4988819;28;19932;-84
2022/03/01 12:01:14;;;;;;;;;;;;;;;1.39;74.16;100690.19;4986894;28;19921;-83
2022/03/01 12:03:40;;;;;;;;;;;;;;;1.40;73.93;100688.44;4992035;28;19930;-83
2022/03/01 12:06:06;;;;;;;;;;;;;;;1.43;74.04;100691.06;4991737;28;19965;-82
2022/03/01 12:08:31;;;;;;;;;;;;;;;1.38;74.01;100696.25;4990919;28;19929;-82
2022/03/01 12:11:02;;;;;;;;;;;;;;;1.40;73.90;100689.28;4991597;28;19928;-84
2022/03/01 12:13:40;;;;;;;;;;;;;;;1.39;73.94;100694.53;5007057;28;19976;-84
2022/03/01 12:16:06;;;;;;;;;;;;;;;1.42;73.76;100682.38;4990932;28;19973;-81
2022/03/01 12:18:36;;;;;;;;;;;;;;;1.39;73.52;100689.31;4991533;28;19930;-85
2022/03/01 12:21:06;;;;;;;;;;;;;;;1.43;73.56;100685.84;4990527;28;20020;-81
2022/03/01 12:23:32;;;;;;;;;;;;;;;1.48;73.28;100681.53;4990729;28;19992;-84
2022/03/01 12:26:05;;;;;;;;;;;;;;;1.46;73.30;100680.66;5007036;28;19918;-82
2022/03/01 12:28:37;;;;;;;;;;;;;;;1.49;73.56;100679.81;4988175;28;19937;-81
2022/03/01 12:31:20;;;;;;;;;;;;;;;1.47;73.24;100681.53;4990834;28;20396;-86
2022/03/01 12:33:49;;;;;;;;;;;;;;;1.47;73.14;100677.19;4990704;28;19922;-82
2022/03/01 12:36:24;;;;;;;;;;;;;;;1.47;73.15;100665.84;5007308;28;19984;-86
2022/03/01 12:38:57;;;;;;;;;;;;;;;1.51;72.86;100660.66;5006936;28;19929;-80
2022/03/01 12:41:23;;;;;;;;;;;;;;;1.51;72.96;100660.66;4990857;28;19926;-85
2022/03/01 12:43:59;;;;;;;;;;;;;;;1.47;72.91;100651.06;4991806;28;19928;-82
2022/03/01 12:46:25;;;;;;;;;;;;;;;1.50;73.10;100658.03;5005022;28;19925;-86
2022/03/01 12:48:51;;;;;;;;;;;;;;;1.57;73.07;100652.88;5006160;28;19922;-88
2022/03/01 12:51:16;;;;;;;;;;;;;;;1.79;75.04;100658.28;4991861;28;19929;-86
2022/03/01 12:53:57;;;;;;;;;;;;;;;2.07;78.13;100674.13;4991999;28;19925;-81
2022/03/01 12:56:23;;;;;;;;;;;;;;;2.21;81.33;100661.13;5006194;28;19972;-87
2022/03/01 12:58:49;;;;;;;;;;;;;;;2.25;83.42;100658.56;4991826;28;20292;-87
2022/03/01 13:01:14;;;;;;;;;;;;;;;2.30;85.17;100653.34;4990708;28;20345;-81
2022/03/01 13:03:40;;;;;;;;;;;;;;;2.36;86.40;100655.97;4992080;28;20004;-85
2022/03/01 13:06:06;;;;;;;;;;;;;;;2.47;87.37;100646.44;4991868;28;19918;-87
2022/03/01 13:08:32;;;;;;;;;;;;;;;2.54;88.14;100645.59;4991123;28;19918;-82
2022/03/01 13:10:58;;;;;;;;;;;;;;;2.52;88.83;100641.19;5007547;28;20358;-85
2022/03/01 13:13:23;;;;;;;;;;;;;;;2.46;89.88;100636.84;4995579;28;20016;-85
2022/03/01 13:15:48;;;;;;;;;;;;;;;2.55;90.57;100641.22;4994307;28;19917;-85
2022/03/01 13:18:13;;;;;;;;;;;;;;;2.41;91.60;100638.56;4993424;28;20016;-86
2022/03/01 13:20:39;;;;;;;;;;;;;;;2.42;92.85;100634.19;5010524;28;20390;-84
2022/03/01 13:23:08;;;;;;;;;;;;;;;2.49;94.24;100635.97;4993650;28;19964;-82
2022/03/01 13:25:35;;;;;;;;;;;;;;;2.48;95.67;100629.88;5009170;28;20301;-82
2022/03/01 13:28:01;;;;;;;;;;;;;;;2.67;97.34;100630.81;4993959;28;19926;-87
2022/03/01 13:30:27;;;;;;;;;;;;;;;2.82;99.46;100626.47;4993811;28;20332;-84
2022/03/01 13:33:07;;;;;;;;;;;;;;;3.05;100.00;100629.16;4993859;28;19981;-81
2022/03/01 13:35:32;;;;;;;;;;;;;;;3.21;100.00;100615.19;5009211;28;19929;-85
2022/03/01 13:38:02;;;;;;;;;;;;;;;3.31;100.00;100612.56;4993507;28;19922;-81
2022/03/01 13:40:27;;;;;;;;;;;;;;;3.32;100.00;100609.06;4993165;28;20384;-85
2022/03/01 13:43:03;;;;;;;;;;;;;;;3.43;100.00;100615.16;4994177;28;20060;-83
2022/03/01 13:45:30;;;;;;;;;;;;;;;3.45;100.00;100614.31;4992281;28;19922;-88
2022/03/01 13:47:55;;;;;;;;;;;;;;;3.55;100.00;100617.78;4993014;28;19961;-88
2022/03/01 13:50:21;;;;;;;;;;;;;;;3.64;100.00;100622.16;4992841;28;19921;-81
2022/03/01 13:52:51;;;;;;;;;;;;;;;3.65;100.00;100626.50;5009480;28;19921;-88
2022/03/01 13:55:21;;;;;;;;;;;;;;;3.70;100.00;100624.78;4992799;28;20404;-90
2022/03/01 13:57:50;;;;;;;;;;;;;;;3.73;100.00;100627.38;5008020;28;20293;-86
2022/03/01 14:00:32;;;;;;;;;;;;;;;3.80;100.00;100628.25;4993162;28;20008;-80
2022/03/01 14:03:21;;;;;;;;;;;;;;;3.81;100.00;100635.22;4993024;28;19933;-84
2022/03/01 14:05:55;;;;;;;;;;;;;;;3.84;100.00;100639.59;4985151;28;19929;-80
2022/03/01 14:08:20;;;;;;;;;;;;;;;3.91;100.00;100636.09;4993628;28;20653;-80
2022/03/01 14:10:48;;;;;;;;;;;;;;;3.95;100.00;100638.69;4993238;28;19971;-82
2022/03/01 14:13:16;;;;;;;;;;;;;;;4.03;100.00;100636.06;4992307;28;19921;-80
2022/03/01 14:15:45;;;;;;;;;;;;;;;4.06;100.00;100638.69;4990840;28;19928;-80
2022/03/01 14:18:10;;;;;;;;;;;;;;;4.04;100.00;100637.81;4991352;28;20016;-85
2022/03/01 14:20:36;;;;;;;;;;;;;;;4.12;100.00;100628.19;4991501;28;20065;-82
2022/03/01 14:23:02;;;;;;;;;;;;;;;4.14;100.00;100618.53;4991849;28;19926;-81
2022/03/01 14:25:27;;;;;;;;;;;;;;;4.13;100.00;100616.81;4992515;28;20377;-81
2022/03/01 14:27:53;;;;;;;;;;;;;;;4.08;100.00;100618.56;4992930;28;19995;-83
2022/03/01 14:30:18;;;;;;;;;;;;;;;3.17;100.00;100609.94;4991081;28;19953;-81
2022/03/01 14:32:43;;;;;;;;;;;;;;;2.76;100.00;100608.13;4991583;28;19922;-81
2022/03/01 14:35:09;;;;;;;;;;;;;;;2.64;100.00;100604.63;5002660;28;19926;-84
2022/03/01 14:37:34;;;;;;;;;;;;;;;2.57;98.61;100597.63;4993140;28;19975;-80
2022/03/01 14:39:59;;;;;;;;;;;;;;;2.42;96.83;100597.59;4992511;28;19933;-80
2022/03/01 14:42:24;;;;;;;;;;;;;;;2.38;95.63;100588.84;4992229;28;19921;-84
2022/03/01 14:44:50;;;;;;;;;;;;;;;2.33;94.90;100591.47;4991197;28;19933;-80
2022/03/01 14:47:15;;;;;;;;;;;;;;;2.29;93.81;100575.75;4990593;28;19991;-80
2022/03/01 14:49:40;;;;;;;;;;;;;;;2.12;92.78;100573.03;4992119;28;20024;-83
2022/03/01 14:52:06;;;;;;;;;;;;;;;2.14;91.88;100571.34;4991211;28;19969;-80
2022/03/01 14:54:31;;;;;;;;;;;;;;;2.14;91.29;100566.97;4992423;28;20273;-84
2022/03/01 14:56:57;;;;;;;;;;;;;;;2.06;90.49;100565.16;4991582;28;19925;-80
2022/03/01 14:59:22;;;;;;;;;;;;;;;2.07;89.70;100561.69;5005682;28;19922;-82
2022/03/01 15:01:48;;;;;;;;;;;;;;;1.92;88.44;100563.38;5005621;28;19922;-83
2022/03/01 15:04:13;;;;;;;;;;;;;;;1.85;87.76;100553.78;4992626;28;20336;-83
2022/03/01 15:06:38;;;;;;;;;;;;;;;1.90;87.01;100557.28;4993473;28;20345;-85
2022/03/01 15:09:04;;;;;;;;;;;;;;;1.73;86.02;100558.94;4991741;28;19925;-86
2022/03/01 15:11:29;;;;;;;;;;;;;;;1.64;85.60;100562.34;4990434;28;19921;-79
2022/03/01 15:13:57;;;;;;;;;;;;;;;1.71;85.88;100564.16;4992288;28;19921;-87
2022/03/01 15:16:23;;;;;;;;;;;;;;;1.67;85.26;100558.91;4991683;28;21611;-79
2022/03/01 15:18:48;;;;;;;;;;;;;;;1.54;84.89;100569.25;4990829;28;19972;-88
2022/03/01 15:21:14;;;;;;;;;;;;;;;1.52;84.45;100576.22;4993043;28;19992;-88
2022/03/01 15:23:39;;;;;;;;;;;;;;;1.56;84.18;100577.09;5007299;28;20340;-81
2022/03/01 15:26:04;;;;;;;;;;;;;;;1.50;84.37;100570.13;5007969;28;19924;-85
2022/03/01 15:28:30;;;;;;;;;;;;;;;1.46;83.88;100570.94;4991617;28;19973;-81
2022/03/01 15:30:56;;;;;;;;;;;;;;;1.46;83.85;100578.78;4990296;28;20308;-82
2022/03/01 15:33:21;;;;;;;;;;;;;;;1.52;83.80;100568.38;4990378;28;19922;-83
2022/03/01 15:35:46;;;;;;;;;;;;;;;1.51;83.30;100564.00;5006948;28;19932;-83
2022/03/01 15:38:12;;;;;;;;;;;;;;;1.38;82.95;100557.84;5007776;28;19941;-82
2022/03/01 15:40:37;;;;;;;;;;;;;;;1.33;82.93;100558.69;4990992;28;20396;-80
2022/03/01 15:43:02;;;;;;;;;;;;;;;1.32;82.86;100562.16;4991154;28;19976;-84
2022/03/01 15:45:28;;;;;;;;;;;;;;;1.37;82.92;100547.38;4991079;28;20369;-83
2022/03/01 15:47:53;;;;;;;;;;;;;;;1.34;82.58;100544.75;4986090;28;19941;-83
2022/03/01 15:50:19;;;;;;;;;;;;;;;1.37;82.71;100539.53;5007068;28;20427;-80
2022/03/01 15:52:45;;;;;;;;;;;;;;;1.30;82.56;100533.41;5006850;28;20080;-80
2022/03/01 15:55:13;;;;;;;;;;;;;;;1.27;82.36;100534.25;5005867;28;20450;-88
2022/03/01 15:57:39;;;;;;;;;;;;;;;1.30;82.41;100535.16;5006641;28;19926;-82
2022/03/01 16:00:05;;;;;;;;;;;;;;;1.21;82.25;100543.78;4989509;28;20439;-84
2022/03/01 16:02:31;;;;;;;;;;;;;;;1.20;82.13;100548.13;4991649;28;19926;-81
2022/03/01 16:04:56;;;;;;;;;;;;;;;1.20;82.15;100547.28;4992495;28;19932;-80
2022/03/01 16:07:22;;;;;;;;;;;;;;;1.18;81.83;100542.03;4992046;28;20300;-83
2022/03/01 16:09:47;;;;;;;;;;;;;;;1.12;81.98;100538.47;4990292;28;19926;-82
2022/03/01 16:12:12;;;;;;;;;;;;;;;1.63;81.70;100535.34;4990540;28;20332;-82
2022/03/01 16:14:37;;;;;;;;;;;;;;;1.54;81.13;100545.75;4988303;28;19932;-83
2022/03/01 16:17:05;;;;;;;;;;;;;;;1.32;81.53;100536.03;4990409;28;19925;-83
2022/03/01 16:19:30;;;;;;;;;;;;;;;1.31;81.77;100534.28;4992241;28;19922;-81
2022/03/01 16:21:56;;;;;;;;;;;;;;;1.18;81.34;100525.47;4988944;28;20357;-81
2022/03/01 16:24:21;;;;;;;;;;;;;;;1.21;81.77;100534.22;4990493;28;20365;-86
2022/03/01 16:26:46;;;;;;;;;;;;;;;1.08;81.56;100532.38;4989945;28;20788;-88
2022/03/01 16:29:11;;;;;;;;;;;;;;;1.03;81.51;100528.88;4991027;28;19964;-79
2022/03/01 16:31:37;;;;;;;;;;;;;;;1.11;81.48;100527.19;4990723;28;19935;-80
2022/03/01 16:34:02;;;;;;;;;;;;;;;1.11;81.40;100532.41;4990353;28;19929;-81
2022/03/01 16:36:27;;;;;;;;;;;;;;;1.11;81.53;100531.53;4990173;28;20024;-79
2022/03/01 16:38:52;;;;;;;;;;;;;;;1.09;81.53;100534.13;4985193;28;19953;-79
2022/03/01 16:41:18;;;;;;;;;;;;;;;1.03;81.40;100529.72;4989095;28;19953;-81
2022/03/01 16:43:43;;;;;;;;;;;;;;;1.16;81.34;100524.59;4987999;28;19926;-79
2022/03/01 16:46:09;;;;;;;;;;;;;;;1.14;81.10;100521.13;4992905;28;19921;-88
2022/03/01 16:48:36;;;;;;;;;;;;;;;0.98;81.08;100526.22;5010053;28;20072;-80
2022/03/01 16:51:03;;;;;;;;;;;;;;;1.05;81.63;100516.69;4991913;28;19953;-79
2022/03/01 16:53:29;;;;;;;;;;;;;;;0.94;81.21;100519.22;4994543;28;19922;-87
2022/03/01 16:55:55;;;;;;;;;;;;;;;1.06;81.32;100524.53;5009940;28;20396;-85
2022/03/01 16:58:20;;;;;;;;;;;;;;;1.02;81.14;100522.78;4992926;28;20324;-85
2022/03/01 17:00:45;;;;;;;;;;;;;;;0.96;80.99;100520.13;4992595;28;19930;-84
2022/03/01 17:03:11;;;;;;;;;;;;;;;0.97;81.02;100519.22;4995222;28;19926;-84
2022/03/01 17:05:38;;;;;;;;;;;;;;;0.90;80.96;100520.91;4995036;28;19995;-79
2022/03/01 17:08:04;;;;;;;;;;;;;;;0.99;80.90;100522.75;5009654;28;19925;-87
2022/03/01 17:10:29;;;;;;;;;;;;;;;1.05;80.78;100521.91;4993067;28;20296;-86
2022/03/01 17:12:54;;;;;;;;;;;;;;;1.13;80.87;100524.59;4995488;28;20368;-88
2022/03/01 17:15:22;;;;;;;;;;;;;;;0.90;80.44;100526.16;4994164;28;20358;-87
2022/03/01 17:17:48;;;;;;;;;;;;;;;1.01;80.46;100525.38;5009528;28;20388;-84
2022/03/01 17:20:13;;;;;;;;;;;;;;;0.93;80.00;100537.50;4994887;28;19918;-79
2022/03/01 17:22:39;;;;;;;;;;;;;;;0.99;80.33;100542.72;4993403;28;20016;-82
2022/03/01 17:25:05;;;;;;;;;;;;;;;0.92;80.49;100546.16;4995169;28;20384;-87
2022/03/01 17:27:31;;;;;;;;;;;;;;;1.03;80.64;100544.53;4994411;28;20332;-83
2022/03/01 17:29:58;;;;;;;;;;;;;;;0.89;80.28;100542.69;5009054;28;19925;-81
2022/03/01 17:32:23;;;;;;;;;;;;;;;0.75;80.27;100544.28;4995088;28;20351;-82
2022/03/01 17:34:50;;;;;;;;;;;;;;;0.93;80.23;100537.50;4993763;28;19997;-81
2022/03/01 17:37:15;;;;;;;;;;;;;;;0.98;80.21;100538.41;4995055;28;20424;-85
2022/03/01 17:39:41;;;;;;;;;;;;;;;0.96;79.97;100537.50;4994958;28;19922;-82
2022/03/01 17:42:07;;;;;;;;;;;;;;;0.95;79.53;100533.16;4994234;28;19968;-82
2022/03/01 17:44:32;;;;;;;;;;;;;;;0.93;79.47;100540.97;4993596;28;19921;-82
2022/03/01 17:46:57;;;;;;;;;;;;;;;0.88;79.39;100551.38;4994828;28;19918;-84
2022/03/01 17:49:22;;;;;;;;;;;;;;;0.80;79.53;100565.19;4994742;28;20029;-83
2022/03/01 17:51:48;;;;;;;;;;;;;;;0.88;79.65;100569.63;4993316;28;19945;-85
2022/03/01 17:54:13;;;;;;;;;;;;;;;0.86;79.43;100566.13;4994326;28;19926;-82
2022/03/01 17:56:39;;;;;;;;;;;;;;;0.88;79.34;100572.25;4993863;28;19948;-80
2022/03/01 17:59:04;;;;;;;;;;;;;;;0.93;79.35;100574.03;4993520;28;19922;-85
2022/03/01 18:01:29;;;;;;;;;;;;;;;0.86;79.12;100573.97;4993082;28;19926;-80
2022/03/01 18:03:55;;;;;;;;;;;;;;;0.89;78.95;100579.22;5009658;28;19922;-80
2022/03/01 18:06:20;;;;;;;;;;;;;;;0.93;78.61;100576.63;4994583;28;20016;-85
2022/03/01 18:08:45;;;;;;;;;;;;;;;0.85;78.65;100574.81;4994624;28;19984;-80
2022/03/01 18:11:11;;;;;;;;;;;;;;;0.85;78.62;100568.72;4994500;28;19972;-81
2022/03/01 18:13:36;;;;;;;;;;;;;;;0.82;78.63;100571.31;4993150;28;19972;-80
2022/03/01 18:16:01;;;;;;;;;;;;;;;1.03;78.67;100570.63;5008286;28;19918;-82
2022/03/01 18:18:26;;;;;;;;;;;;;;;0.84;78.08;100572.19;4994390;28;19921;-83
2022/03/01 18:20:54;;;;;;;;;;;;;;;0.84;78.45;100570.44;4994561;28;20307;-79
2022/03/01 18:23:20;;;;;;;;;;;;;;;0.85;78.20;100569.59;4994283;28;19928;-81
2022/03/01 18:25:45;;;;;;;;;;;;;;;0.98;78.30;100570.56;4993979;28;19929;-87
2022/03/01 18:28:11;;;;;;;;;;;;;;;0.99;78.08;100566.22;4992742;28;19918;-82
2022/03/01 18:30:36;;;;;;;;;;;;;;;0.98;78.09;100560.13;4992322;28;20333;-82
2022/03/01 18:33:02;;;;;;;;;;;;;;;0.97;77.74;100568.81;4993798;28;19925;-87
2022/03/01 18:35:28;;;;;;;;;;;;;;;0.92;77.84;100567.91;4994041;28;19928;-83
2022/03/01 18:37:53;;;;;;;;;;;;;;;0.87;77.83;100565.25;4992702;28;19918;-84
2022/03/01 18:40:18;;;;;;;;;;;;;;;0.95;77.77;100562.72;4993940;28;20004;-83
2022/03/01 18:42:44;;;;;;;;;;;;;;;0.99;77.73;100567.13;4993868;28;20377;-84
2022/03/01 18:45:09;;;;;;;;;;;;;;;0.96;77.47;100574.03;4990851;28;20274;-83
2022/03/01 18:47:35;;;;;;;;;;;;;;;0.88;77.25;100579.19;4993772;28;19918;-87
2022/03/01 18:50:01;;;;;;;;;;;;;;;0.94;77.05;100580.97;5008661;28;20293;-84
2022/03/01 18:52:26;;;;;;;;;;;;;;;0.98;77.31;100585.38;4990895;28;20392;-80
2022/03/01 18:54:52;;;;;;;;;;;;;;;0.97;77.13;100586.22;4992273;28;20035;-87
2022/03/01 18:57:17;;;;;;;;;;;;;;;0.94;76.70;100578.38;4993705;28;19918;-83
2022/03/01 18:59:42;;;;;;;;;;;;;;;0.90;77.06;100582.69;5007317;28;19962;-86
2022/03/01 19:02:09;;;;;;;;;;;;;;;0.98;77.01;100567.97;5008533;28;20385;-88
2022/03/01 19:04:34;;;;;;;;;;;;;;;0.95;76.62;100572.28;4993176;28;19917;-87
2022/03/01 19:07:00;;;;;;;;;;;;;;;0.95;76.49;100572.28;4993325;28;19930;-88
2022/03/01 19:09:25;;;;;;;;;;;;;;;1.06;77.01;100566.28;4991936;28;20019;-82
2022/03/01 19:11:51;;;;;;;;;;;;;;;0.97;76.49;100566.22;4993245;28;19922;-86
2022/03/01 19:14:16;;;;;;;;;;;;;;;0.95;76.44;100562.72;4992915;28;19924;-80
2022/03/01 19:16:41;;;;;;;;;;;;;;;0.94;76.46;100571.41;4992309;28;19918;-85
2022/03/01 19:19:07;;;;;;;;;;;;;;;1.01;76.42;100561.91;5008347;28;19918;-88
2022/03/01 19:21:32;;;;;;;;;;;;;;;0.92;76.20;100565.31;4991869;28;19922;-87
2022/03/01 19:23:58;;;;;;;;;;;;;;;0.97;76.05;100570.56;4993001;28;20282;-86
2022/03/01 19:26:24;;;;;;;;;;;;;;;1.01;75.94;100572.34;4993020;28;19933;-81
2022/03/01 19:28:51;;;;;;;;;;;;;;;0.96;75.93;100580.13;4992279;28;20272;-88
2022/03/01 19:31:17;;;;;;;;;;;;;;;0.95;75.72;100587.97;4991873;28;19918;-85
2022/03/01 19:33:42;;;;;;;;;;;;;;;0.98;76.08;100580.16;4992980;28;19968;-84
2022/03/01 19:36:07;;;;;;;;;;;;;;;1.01;75.86;100586.28;5008094;28;19918;-86
2022/03/01 19:38:34;;;;;;;;;;;;;;;1.00;75.92;100581.03;4991559;28;19954;-82
2022/03/01 19:40:59;;;;;;;;;;;;;;;1.04;75.89;100580.22;4990760;28;20403;-87